LVIRU SABE-SAAR
Flight info
| Callsign | LVIRU |
|---|---|
| Flight time | 0h 32m |
| Altitude | 24000 |
| Route | SABE 13 ATOV4B ATOVO W5 ESKON DCT SAAR 02 |
| Aircraft | LJ35/L-S/C |
Departure
| Time | 2026-05-06 23:05 |
|---|---|
| Airport | Aeroparque Jorge Newbery (SABE) |
Arrival
| Time | 2026-05-06 23:38 |
|---|---|
| Airport | Rosario Islas Malvinas International Airport (SAAR) |
| Time | Latitude | Longitude | Altitude | Speed | Heading |
|---|---|---|---|---|---|
| 2026-05-06 22:51 | -34.56481 | -58.40874 | 21 ft | 0 kts | 34° |
| 2026-05-06 22:58 | -34.56475 | -58.40875 | 21 ft | 4 kts | 332° |
| 2026-05-06 22:58 | -34.56475 | -58.40956 | 21 ft | 17 kts | 278° |
| 2026-05-06 22:58 | -34.56389 | -58.41121 | 23 ft | 30 kts | 306° |
| 2026-05-06 22:58 | -34.56255 | -58.41364 | 21 ft | 33 kts | 297° |
| 2026-05-06 22:59 | -34.56165 | -58.41479 | 21 ft | 13 kts | 19° |
| 2026-05-06 22:59 | -34.56120 | -58.41442 | 21 ft | 0 kts | 35° |
| 2026-05-06 23:00 | -34.56117 | -58.41440 | 21 ft | 3 kts | 35° |
| 2026-05-06 23:01 | -34.56064 | -58.41396 | 20 ft | 15 kts | 32° |
| 2026-05-06 23:01 | -34.55952 | -58.41297 | 21 ft | 21 kts | 45° |
| 2026-05-06 23:01 | -34.55896 | -58.41365 | 21 ft | 18 kts | 297° |
| 2026-05-06 23:01 | -34.55821 | -58.41544 | 21 ft | 29 kts | 297° |
| 2026-05-06 23:02 | -34.55758 | -58.41695 | 21 ft | 13 kts | 294° |
| 2026-05-06 23:02 | -34.55739 | -58.41741 | 20 ft | 0 kts | 297° |
| 2026-05-06 23:02 | -34.55724 | -58.41772 | 20 ft | 12 kts | 311° |
| 2026-05-06 23:02 | -34.55646 | -58.41903 | 21 ft | 26 kts | 307° |
| 2026-05-06 23:03 | -34.55516 | -58.42136 | 21 ft | 40 kts | 307° |
| 2026-05-06 23:03 | -34.55397 | -58.42327 | 22 ft | 16 kts | 307° |
| 2026-05-06 23:03 | -34.55369 | -58.42385 | 21 ft | 0 kts | 287° |
| 2026-05-06 23:04 | -34.55361 | -58.42442 | 21 ft | 15 kts | 274° |
| 2026-05-06 23:04 | -34.55416 | -58.42483 | 21 ft | 11 kts | 134° |
| 2026-05-06 23:04 | -34.55427 | -58.42464 | 22 ft | 3 kts | 122° |
| 2026-05-06 23:04 | -34.55533 | -58.42277 | 23 ft | 63 kts | 124° |
| 2026-05-06 23:05 | -34.55959 | -58.41512 | 20 ft | 159 kts | 124° |
| 2026-05-06 23:05 | -34.56726 | -58.40162 | 439 ft | 223 kts | 125° |
| 2026-05-06 23:05 | -34.57528 | -58.38538 | 1599 ft | 219 kts | 111° |
| 2026-05-06 23:05 | -34.57737 | -58.36707 | 2642 ft | 232 kts | 80° |
| 2026-05-06 23:06 | -34.57059 | -58.34940 | 3668 ft | 235 kts | 46° |
| 2026-05-06 23:06 | -34.55722 | -58.33782 | 4694 ft | 240 kts | 23° |
| 2026-05-06 23:06 | -34.54104 | -58.32828 | 5017 ft | 280 kts | 24° |
| 2026-05-06 23:06 | -34.52285 | -58.31582 | 5030 ft | 315 kts | 29° |
| 2026-05-06 23:07 | -34.50403 | -58.30461 | 5018 ft | 283 kts | 15° |
| 2026-05-06 23:07 | -34.48461 | -58.29966 | 5382 ft | 285 kts | 2° |
| 2026-05-06 23:07 | -34.46494 | -58.29972 | 6344 ft | 283 kts | 350° |
| 2026-05-06 23:07 | -34.44646 | -58.30714 | 7072 ft | 282 kts | 326° |
| 2026-05-06 23:08 | -34.43283 | -58.32395 | 7970 ft | 282 kts | 301° |
| 2026-05-06 23:08 | -34.42367 | -58.34516 | 9048 ft | 287 kts | 295° |
| 2026-05-06 23:08 | -34.41427 | -58.36679 | 9991 ft | 294 kts | 299° |
| 2026-05-06 23:08 | -34.40312 | -58.38771 | 10955 ft | 297 kts | 303° |
| 2026-05-06 23:09 | -34.39129 | -58.40838 | 11876 ft | 301 kts | 303° |
| 2026-05-06 23:09 | -34.37971 | -58.42965 | 12814 ft | 304 kts | 302° |
| 2026-05-06 23:09 | -34.36837 | -58.45108 | 13682 ft | 307 kts | 302° |
| 2026-05-06 23:09 | -34.36049 | -58.46578 | 14226 ft | 309 kts | 302° |
| 2026-05-06 23:10 | -34.33371 | -58.51520 | 16129 ft | 313 kts | 301° |
| 2026-05-06 23:10 | -34.32177 | -58.53731 | 16967 ft | 315 kts | 301° |
| 2026-05-06 23:10 | -34.30975 | -58.55955 | 17791 ft | 317 kts | 301° |
| 2026-05-06 23:11 | -34.29760 | -58.58199 | 18481 ft | 320 kts | 301° |
| 2026-05-06 23:11 | -34.28534 | -58.60461 | 19151 ft | 323 kts | 301° |
| 2026-05-06 23:11 | -34.27295 | -58.62747 | 19801 ft | 326 kts | 301° |
| 2026-05-06 23:11 | -34.26043 | -58.65055 | 20423 ft | 330 kts | 301° |
| 2026-05-06 23:12 | -34.24776 | -58.67391 | 21037 ft | 333 kts | 301° |
| 2026-05-06 23:12 | -34.23500 | -58.69741 | 21628 ft | 336 kts | 301° |
| 2026-05-06 23:12 | -34.22227 | -58.72081 | 22207 ft | 338 kts | 301° |
| 2026-05-06 23:12 | -34.20930 | -58.74468 | 22748 ft | 341 kts | 301° |
| 2026-05-06 23:13 | -34.19617 | -58.76879 | 23272 ft | 344 kts | 301° |
| 2026-05-06 23:13 | -34.18296 | -58.79304 | 23718 ft | 346 kts | 301° |
| 2026-05-06 23:13 | -34.16971 | -58.81737 | 24119 ft | 341 kts | 301° |
| 2026-05-06 23:13 | -34.15708 | -58.84045 | 23660 ft | 317 kts | 301° |
| 2026-05-06 23:14 | -34.14503 | -58.86256 | 23637 ft | 323 kts | 300° |
| 2026-05-06 23:14 | -34.13249 | -58.88569 | 23637 ft | 342 kts | 301° |
| 2026-05-06 23:14 | -34.11910 | -58.91020 | 23648 ft | 357 kts | 301° |
| 2026-05-06 23:14 | -34.10516 | -58.93561 | 23653 ft | 369 kts | 301° |
| 2026-05-06 23:15 | -34.09078 | -58.96186 | 23653 ft | 379 kts | 301° |
| 2026-05-06 23:15 | -34.07616 | -58.98859 | 23655 ft | 386 kts | 301° |
| 2026-05-06 23:15 | -34.06126 | -59.01579 | 23655 ft | 391 kts | 301° |
| 2026-05-06 23:15 | -34.04619 | -59.04325 | 23655 ft | 394 kts | 301° |
| 2026-05-06 23:16 | -34.03099 | -59.07096 | 23657 ft | 397 kts | 301° |
| 2026-05-06 23:16 | -34.01566 | -59.09887 | 23653 ft | 399 kts | 301° |
| 2026-05-06 23:16 | -34.00028 | -59.12686 | 23658 ft | 401 kts | 301° |
| 2026-05-06 23:16 | -33.98484 | -59.15492 | 23654 ft | 402 kts | 301° |
| 2026-05-06 23:17 | -33.96936 | -59.18304 | 23656 ft | 402 kts | 301° |
| 2026-05-06 23:17 | -33.95381 | -59.21116 | 23656 ft | 403 kts | 302° |
| 2026-05-06 23:17 | -33.93751 | -59.23815 | 23653 ft | 405 kts | 305° |
| 2026-05-06 23:17 | -33.91981 | -59.26449 | 23656 ft | 405 kts | 306° |
| 2026-05-06 23:18 | -33.90229 | -59.29100 | 23658 ft | 405 kts | 305° |
| 2026-05-06 23:18 | -33.88540 | -59.31807 | 23649 ft | 405 kts | 304° |
| 2026-05-06 23:18 | -33.86845 | -59.34518 | 23654 ft | 405 kts | 304° |
| 2026-05-06 23:18 | -33.85175 | -59.37237 | 23651 ft | 404 kts | 302° |
| 2026-05-06 23:19 | -33.83685 | -59.40110 | 23653 ft | 403 kts | 298° |
| 2026-05-06 23:19 | -33.82224 | -59.42986 | 23655 ft | 403 kts | 300° |
| 2026-05-06 23:19 | -33.80656 | -59.45784 | 23653 ft | 404 kts | 302° |
| 2026-05-06 23:19 | -33.79057 | -59.48565 | 23653 ft | 404 kts | 301° |
| 2026-05-06 23:20 | -33.77509 | -59.51384 | 23652 ft | 403 kts | 300° |
| 2026-05-06 23:20 | -33.75982 | -59.54213 | 23656 ft | 403 kts | 301° |
| 2026-05-06 23:20 | -33.74432 | -59.57022 | 23655 ft | 403 kts | 301° |
| 2026-05-06 23:20 | -33.72870 | -59.59818 | 23654 ft | 403 kts | 301° |
| 2026-05-06 23:21 | -33.71335 | -59.62590 | 23654 ft | 403 kts | 301° |
| 2026-05-06 23:21 | -33.69791 | -59.65393 | 23651 ft | 403 kts | 301° |
| 2026-05-06 23:21 | -33.68240 | -59.68198 | 23652 ft | 402 kts | 301° |
| 2026-05-06 23:21 | -33.66684 | -59.70997 | 23649 ft | 402 kts | 301° |
| 2026-05-06 23:22 | -33.65130 | -59.73797 | 23657 ft | 402 kts | 301° |
| 2026-05-06 23:22 | -33.63597 | -59.76563 | 23651 ft | 402 kts | 301° |
| 2026-05-06 23:22 | -33.62045 | -59.79356 | 23654 ft | 402 kts | 301° |
| 2026-05-06 23:22 | -33.60494 | -59.82145 | 23655 ft | 401 kts | 301° |
| 2026-05-06 23:23 | -33.58942 | -59.84933 | 23651 ft | 401 kts | 301° |
| 2026-05-06 23:23 | -33.57388 | -59.87725 | 23651 ft | 401 kts | 301° |
| 2026-05-06 23:23 | -33.55837 | -59.90508 | 23652 ft | 401 kts | 301° |
| 2026-05-06 23:23 | -33.54306 | -59.93252 | 23649 ft | 401 kts | 301° |
| 2026-05-06 23:24 | -33.52758 | -59.96027 | 23653 ft | 400 kts | 301° |
| 2026-05-06 23:24 | -33.51208 | -59.98801 | 23652 ft | 400 kts | 301° |
| 2026-05-06 23:24 | -33.49657 | -60.01576 | 23652 ft | 400 kts | 301° |
| 2026-05-06 23:24 | -33.48105 | -60.04351 | 23653 ft | 400 kts | 301° |
| 2026-05-06 23:25 | -33.46581 | -60.07069 | 23651 ft | 372 kts | 301° |
| 2026-05-06 23:25 | -33.45194 | -60.09528 | 21730 ft | 354 kts | 301° |
| 2026-05-06 23:25 | -33.43834 | -60.11974 | 19609 ft | 357 kts | 301° |
| 2026-05-06 23:25 | -33.42469 | -60.14418 | 17808 ft | 348 kts | 302° |
| 2026-05-06 23:26 | -33.41126 | -60.16801 | 15855 ft | 341 kts | 302° |
| 2026-05-06 23:26 | -33.39815 | -60.19131 | 14093 ft | 333 kts | 302° |
| 2026-05-06 23:26 | -33.38506 | -60.21462 | 12874 ft | 340 kts | 303° |
| 2026-05-06 23:26 | -33.37220 | -60.23751 | 12086 ft | 334 kts | 303° |
| 2026-05-06 23:27 | -33.35926 | -60.26048 | 11851 ft | 328 kts | 303° |
| 2026-05-06 23:27 | -33.35080 | -60.27552 | 11516 ft | 328 kts | 303° |
| 2026-05-06 23:27 | -33.33392 | -60.30549 | 10904 ft | 327 kts | 303° |
| 2026-05-06 23:27 | -33.32123 | -60.32799 | 10475 ft | 325 kts | 303° |
| 2026-05-06 23:28 | -33.30859 | -60.35039 | 10045 ft | 324 kts | 303° |
| 2026-05-06 23:28 | -33.29598 | -60.37274 | 9641 ft | 323 kts | 304° |
| 2026-05-06 23:28 | -33.28765 | -60.38749 | 9372 ft | 322 kts | 304° |
| 2026-05-06 23:28 | -33.27092 | -60.41710 | 8838 ft | 320 kts | 304° |
| 2026-05-06 23:29 | -33.26266 | -60.43169 | 8613 ft | 318 kts | 304° |
| 2026-05-06 23:29 | -33.25028 | -60.45359 | 8257 ft | 317 kts | 304° |
| 2026-05-06 23:29 | -33.23798 | -60.47531 | 7946 ft | 314 kts | 304° |
| 2026-05-06 23:29 | -33.22987 | -60.48963 | 7738 ft | 313 kts | 304° |
| 2026-05-06 23:30 | -33.21387 | -60.51790 | 6712 ft | 303 kts | 305° |
| 2026-05-06 23:30 | -33.20210 | -60.53865 | 5578 ft | 299 kts | 305° |
| 2026-05-06 23:30 | -33.19053 | -60.55904 | 4408 ft | 296 kts | 306° |
| 2026-05-06 23:30 | -33.17915 | -60.57909 | 3275 ft | 295 kts | 306° |
| 2026-05-06 23:31 | -33.16778 | -60.59910 | 2653 ft | 280 kts | 306° |
| 2026-05-06 23:31 | -33.15751 | -60.61724 | 2701 ft | 248 kts | 306° |
| 2026-05-06 23:31 | -33.14823 | -60.63356 | 2800 ft | 229 kts | 306° |
| 2026-05-06 23:31 | -33.13955 | -60.64878 | 2894 ft | 216 kts | 306° |
| 2026-05-06 23:32 | -33.13128 | -60.66330 | 2982 ft | 206 kts | 306° |
| 2026-05-06 23:32 | -33.12334 | -60.67723 | 2881 ft | 204 kts | 306° |
| 2026-05-06 23:32 | -33.11537 | -60.69123 | 2604 ft | 204 kts | 307° |
| 2026-05-06 23:32 | -33.10733 | -60.70532 | 2543 ft | 206 kts | 307° |
| 2026-05-06 23:33 | -33.09933 | -60.71952 | 2606 ft | 206 kts | 304° |
| 2026-05-06 23:33 | -33.09369 | -60.73537 | 2921 ft | 205 kts | 294° |
| 2026-05-06 23:33 | -33.08834 | -60.75131 | 3004 ft | 208 kts | 295° |
| 2026-05-06 23:33 | -33.08280 | -60.76726 | 3003 ft | 209 kts | 295° |
| 2026-05-06 23:34 | -33.07724 | -60.78347 | 3003 ft | 213 kts | 295° |
| 2026-05-06 23:34 | -33.06981 | -60.79828 | 3008 ft | 208 kts | 314° |
| 2026-05-06 23:34 | -33.05873 | -60.80875 | 3004 ft | 201 kts | 332° |
| 2026-05-06 23:34 | -33.04545 | -60.81389 | 2714 ft | 209 kts | 353° |
| 2026-05-06 23:35 | -33.03040 | -60.81277 | 2175 ft | 223 kts | 7° |
| 2026-05-06 23:35 | -32.98767 | -60.80243 | 1145 ft | 162 kts | 4° |
| 2026-05-06 23:36 | -32.97568 | -60.80081 | 1003 ft | 184 kts | 7° |
| 2026-05-06 23:36 | -32.96437 | -60.79840 | 904 ft | 152 kts | 11° |
| 2026-05-06 23:36 | -32.95446 | -60.79586 | 806 ft | 142 kts | 11° |
| 2026-05-06 23:36 | -32.94472 | -60.79384 | 654 ft | 149 kts | 9° |
| 2026-05-06 23:37 | -32.93375 | -60.79168 | 497 ft | 170 kts | 9° |
| 2026-05-06 23:37 | -32.92603 | -60.78996 | 328 ft | 165 kts | 11° |
| 2026-05-06 23:37 | -32.91527 | -60.78736 | 94 ft | 146 kts | 12° |
| 2026-05-06 23:37 | -32.90667 | -60.78540 | 85 ft | 100 kts | 9° |
| 2026-05-06 23:38 | -32.90381 | -60.78471 | 82 ft | 13 kts | 14° |
| 2026-05-06 23:38 | -32.90290 | -60.78443 | 81 ft | 5 kts | 15° |
| 2026-05-06 23:38 | -32.90277 | -60.78438 | 82 ft | 5 kts | 331° |
| 2026-05-06 23:38 | -32.90334 | -60.78463 | 84 ft | 18 kts | 191° |
| 2026-05-06 23:39 | -32.90521 | -60.78506 | 84 ft | 35 kts | 191° |
| 2026-05-06 23:39 | -32.90674 | -60.78541 | 84 ft | 23 kts | 190° |
| 2026-05-06 23:39 | -32.90843 | -60.78568 | 86 ft | 25 kts | 181° |
| 2026-05-06 23:39 | -32.91018 | -60.78515 | 87 ft | 27 kts | 154° |
| 2026-05-06 23:40 | -32.91185 | -60.78386 | 87 ft | 30 kts | 143° |
| 2026-05-06 23:40 | -32.91352 | -60.78233 | 89 ft | 31 kts | 142° |
| 2026-05-06 23:40 | -32.91526 | -60.78110 | 86 ft | 27 kts | 192° |
| 2026-05-06 23:40 | -32.91558 | -60.78145 | 86 ft | 0 kts | 259° |